createdAt,value
2022-09-27T00:00:52.877Z,96273.44
2022-09-27T00:04:59.411Z,96274.66
2022-09-27T00:09:02.634Z,96261.75
2022-09-27T00:13:06.207Z,96259.94
2022-09-27T00:17:09.466Z,96248.44
2022-09-27T00:21:15.489Z,96245.63
2022-09-27T00:25:20.212Z,96235.13
2022-09-27T00:29:24.983Z,96228.91
2022-09-27T00:33:28.422Z,96221.81
2022-09-27T00:37:33.920Z,96227.66
2022-09-27T00:41:38.111Z,96224.22
2022-09-27T00:45:41.713Z,96223.44
2022-09-27T00:49:49.669Z,96209.31
2022-09-27T00:53:58.800Z,96215.34
2022-09-27T00:58:03.058Z,96208.50
2022-09-27T01:02:08.123Z,96207.94
2022-09-27T01:06:13.339Z,96207.94
2022-09-27T01:10:20.412Z,96200.50
2022-09-27T01:14:43.267Z,96187.63
2022-09-27T01:19:01.120Z,96179.97
2022-09-27T01:23:26.797Z,96179.38
2022-09-27T01:27:56.645Z,96178.59
2022-09-27T01:32:06.386Z,96168.34
2022-09-27T01:36:19.102Z,96162.72
2022-09-27T01:40:31.994Z,96160.91
2022-09-27T01:44:38.708Z,96165.13
2022-09-27T01:48:48.906Z,96155.09
2022-09-27T01:52:56.615Z,96142.63
2022-09-27T01:57:02.682Z,96137.41
2022-09-27T02:01:08.091Z,96133.41
2022-09-27T02:05:18.435Z,96125.56
2022-09-27T02:09:29.490Z,96113.47
2022-09-27T02:13:41.368Z,96111.88
2022-09-27T02:17:49.977Z,96101.84
2022-09-27T02:22:03.035Z,96082.72
2022-09-27T02:26:15.998Z,96080.66
2022-09-27T02:30:20.141Z,96079.44
2022-09-27T02:34:25.355Z,96073.59
2022-09-27T02:38:30.315Z,96071.41
2022-09-27T02:42:34.994Z,96072.63
2022-09-27T02:47:21.892Z,96057.16
2022-09-27T02:51:40.227Z,96052.56
2022-09-27T02:55:53.361Z,96048.56
2022-09-27T03:00:06.672Z,96046.16
2022-09-27T03:04:15.433Z,96050.59
2022-09-27T03:08:19.371Z,96047.41
2022-09-27T03:12:26.299Z,96041.75
2022-09-27T03:16:29.938Z,96053.00
2022-09-27T03:20:33.184Z,96045.97
2022-09-27T03:24:37.176Z,96045.75
2022-09-27T03:28:42.443Z,96038.22
2022-09-27T03:32:46.367Z,96040.84
2022-09-27T03:36:50.125Z,96024.13
2022-09-27T03:40:53.721Z,96001.34
2022-09-27T03:44:58.335Z,96002.97
2022-09-27T03:49:03.751Z,95991.69
2022-09-27T03:53:07.455Z,95981.22
2022-09-27T03:57:10.519Z,95971.75
2022-09-27T04:01:15.715Z,95971.53
2022-09-27T04:05:19.962Z,95955.03
2022-09-27T04:09:23.178Z,95960.25
2022-09-27T04:13:26.842Z,95966.53
2022-09-27T04:17:32.123Z,95963.91
2022-09-27T04:21:35.473Z,95955.47
2022-09-27T04:25:40.354Z,95962.97
2022-09-27T04:29:46.281Z,95977.28
2022-09-27T04:33:51.121Z,95981.38
2022-09-27T04:37:54.481Z,95980.22
2022-09-27T04:41:58.040Z,95975.88
2022-09-27T04:46:01.192Z,95977.91
2022-09-27T04:50:06.757Z,95967.66
2022-09-27T04:54:09.970Z,95967.88
2022-09-27T04:58:13.565Z,95967.28
2022-09-27T05:02:16.763Z,95964.69
2022-09-27T05:06:21.618Z,95978.34
2022-09-27T05:10:25.131Z,95975.75
2022-09-27T05:14:28.682Z,95972.09
2022-09-27T05:18:31.843Z,95974.72
2022-09-27T05:22:38.541Z,95977.91
2022-09-27T05:26:42.548Z,95985.53
2022-09-27T05:30:45.842Z,95993.16
2022-09-27T05:34:49.912Z,96000.00
2022-09-27T05:38:55.312Z,96005.25
2022-09-27T05:42:58.869Z,96017.53
2022-09-27T05:47:04.942Z,96029.47
2022-09-27T05:51:08.601Z,96043.34
2022-09-27T05:55:13.380Z,96051.44
2022-09-27T05:59:16.960Z,96064.72
2022-09-27T06:03:21.512Z,96077.22
2022-09-27T06:07:24.835Z,96087.09
2022-09-27T06:11:30.179Z,96099.41
2022-09-27T06:15:34.839Z,96110.88
2022-09-27T06:19:38.317Z,96099.63
2022-09-27T06:28:00.143Z,96090.97
2022-09-27T06:32:04.017Z,96102.25
2022-09-27T06:36:09.202Z,96099.63
2022-09-27T06:40:12.879Z,96099.19
2022-09-27T06:44:18.387Z,96104.44
2022-09-27T06:48:22.007Z,96106.22
2022-09-27T06:52:25.466Z,96098.59
2022-09-27T06:56:29.273Z,96091.41
2022-09-27T07:00:33.232Z,96083.19
2022-09-27T07:04:36.947Z,96083.41
2022-09-27T07:08:40.113Z,96079.16
2022-09-27T07:12:45.034Z,96066.31
2022-09-27T07:16:50.438Z,96076.00
2022-09-27T07:20:58.007Z,96083.63
2022-09-27T07:25:03.656Z,96075.91
2022-09-27T07:29:07.223Z,96091.38
2022-09-27T07:33:12.319Z,96100.19
2022-09-27T07:37:16.044Z,96104.69
2022-09-27T07:41:19.587Z,96104.47
2022-09-27T07:45:22.996Z,96097.41
2022-09-27T07:49:28.055Z,96090.78
2022-09-27T07:53:31.568Z,96098.84
2022-09-27T07:57:34.692Z,96097.84
2022-09-27T08:01:38.378Z,96110.03
2022-09-27T08:05:44.114Z,96107.06
2022-09-27T08:09:47.421Z,96107.22
2022-09-27T08:13:52.543Z,96114.22
2022-09-27T08:17:56.620Z,96119.41
2022-09-27T08:22:01.635Z,96121.13
2022-09-27T08:26:04.785Z,96113.44
2022-09-27T08:30:09.371Z,96106.75
2022-09-27T08:34:13.187Z,96116.50
2022-09-27T08:38:17.720Z,96119.84
2022-09-27T08:42:30.140Z,96123.59
2022-09-27T08:46:43.017Z,96125.25
2022-09-27T08:50:47.044Z,96123.78
2022-09-27T08:54:53.996Z,96135.69
2022-09-27T08:59:04.097Z,96133.81
2022-09-27T09:03:07.906Z,96125.56
2022-09-27T09:07:23.874Z,96124.84
2022-09-27T09:11:56.418Z,96125.91
2022-09-27T09:16:09.497Z,96129.81
2022-09-27T09:20:23.762Z,96128.91
2022-09-27T09:24:48.071Z,96133.00
2022-09-27T09:29:09.636Z,96133.91
2022-09-27T09:33:24.422Z,96126.25
2022-09-27T09:37:37.339Z,96126.16
2022-09-27T09:41:42.943Z,96130.81
2022-09-27T09:45:52.186Z,96120.75
2022-09-27T09:50:01.880Z,96127.72
2022-09-27T09:54:10.718Z,96132.28
2022-09-27T09:58:23.386Z,96125.78
2022-09-27T10:02:35.010Z,96121.41
2022-09-27T10:06:38.697Z,96126.31
2022-09-27T10:10:42.373Z,96117.59
2022-09-27T10:14:50.526Z,96120.19
2022-09-27T10:19:01.432Z,96116.22
2022-09-27T10:23:13.070Z,96108.69
2022-09-27T10:27:16.682Z,96113.50
2022-09-27T10:31:23.050Z,96100.47
2022-09-27T10:35:41.057Z,96100.75
2022-09-27T10:39:45.677Z,96104.06
2022-09-27T10:43:48.927Z,96106.56
2022-09-27T10:47:52.638Z,96104.91
2022-09-27T10:52:00.983Z,96099.25
2022-09-27T10:56:05.535Z,96104.47
2022-09-27T11:00:23.316Z,96104.34
2022-09-27T11:04:32.301Z,96111.78
2022-09-27T11:08:37.788Z,96120.16
2022-09-27T11:12:42.327Z,96112.94
2022-09-27T11:17:11.092Z,96116.56
2022-09-27T11:21:24.930Z,96117.44
2022-09-27T11:25:40.026Z,96166.47
2022-09-27T11:29:58.247Z,96156.63
2022-09-27T11:34:20.708Z,96133.16
2022-09-27T11:38:51.796Z,96147.97
2022-09-27T11:43:18.770Z,96152.72
2022-09-27T11:47:36.423Z,96146.75
2022-09-27T11:51:55.344Z,96149.66
2022-09-27T11:56:09.339Z,96148.06
2022-09-27T12:00:20.443Z,96142.16
2022-09-27T12:04:44.211Z,96149.47
2022-09-27T12:09:03.398Z,96143.94
2022-09-27T12:13:07.365Z,96141.00
2022-09-27T12:17:18.727Z,96138.88
2022-09-27T12:21:23.042Z,96137.94
2022-09-27T12:25:32.062Z,96146.34
2022-09-27T12:29:38.961Z,96144.19
2022-09-27T12:33:51.241Z,96154.69
2022-09-27T12:38:02.143Z,96158.97
2022-09-27T12:42:14.130Z,96160.81
2022-09-27T12:46:26.812Z,96160.13
2022-09-27T12:50:38.938Z,96166.28
2022-09-27T12:55:08.921Z,96158.47
2022-09-27T12:59:35.747Z,96148.72
2022-09-27T13:03:59.043Z,96154.22
2022-09-27T13:08:20.894Z,96154.09
2022-09-27T13:12:28.298Z,96154.16
2022-09-27T13:16:31.555Z,96150.34
2022-09-27T13:20:43.759Z,96145.41
2022-09-27T13:24:50.427Z,96155.47
2022-09-27T13:29:02.334Z,96154.03
2022-09-27T13:33:45.576Z,96146.97
2022-09-27T13:37:51.903Z,96149.53
2022-09-27T13:42:08.541Z,96137.25
2022-09-27T13:46:18.744Z,96149.63
2022-09-27T13:50:27.284Z,96148.31
2022-09-27T13:54:51.209Z,96168.59
2022-09-27T13:59:00.998Z,96178.03
2022-09-27T14:03:54.054Z,96189.50
2022-09-27T14:08:01.157Z,96190.91
2022-09-27T14:12:11.295Z,96201.28
2022-09-27T14:16:18.292Z,96198.34
2022-09-27T14:20:35.093Z,96211.59
2022-09-27T14:24:47.919Z,96199.94
2022-09-27T14:28:51.530Z,96205.28
2022-09-27T14:32:59.280Z,96200.50
2022-09-27T14:37:19.653Z,96208.47
2022-09-27T14:41:25.416Z,96193.06
2022-09-27T14:45:36.819Z,96193.31
2022-09-27T14:49:50.313Z,96190.66
2022-09-27T14:53:57.643Z,96187.91
2022-09-27T14:58:03.304Z,96186.44
2022-09-27T15:02:19.814Z,96197.03
2022-09-27T15:06:25.522Z,96194.81
2022-09-27T15:10:32.673Z,96194.91
2022-09-27T15:14:41.319Z,96217.31
2022-09-27T15:18:47.161Z,96213.13
2022-09-27T15:22:52.406Z,96215.91
2022-09-27T15:26:56.787Z,96218.56
2022-09-27T15:31:00.032Z,96217.16
2022-09-27T15:35:10.593Z,96225.28
2022-09-27T15:39:19.783Z,96238.19
2022-09-27T15:43:30.949Z,96241.75
2022-09-27T15:47:48.598Z,96249.19
2022-09-27T15:51:53.747Z,96232.94
2022-09-27T15:55:58.460Z,96235.09
2022-09-27T16:00:02.464Z,96235.06
2022-09-27T16:04:09.479Z,96252.78
2022-09-27T16:08:13.449Z,96252.72
2022-09-27T16:12:17.824Z,96256.38
2022-09-27T16:16:23.418Z,96260.03
2022-09-27T16:20:28.372Z,96256.41
2022-09-27T16:24:32.303Z,96271.13
2022-09-27T16:28:36.930Z,96271.28
2022-09-27T16:32:43.282Z,96264.84
2022-09-27T16:36:46.377Z,96267.03
2022-09-27T16:40:49.783Z,96273.41
2022-09-27T16:44:54.194Z,96273.56
2022-09-27T16:48:57.843Z,96272.06
2022-09-27T16:53:01.214Z,96272.75
2022-09-27T16:57:04.762Z,96274.81
2022-09-27T17:01:10.066Z,96278.47
2022-09-27T17:05:13.836Z,96276.50
2022-09-27T17:09:17.350Z,96263.28
2022-09-27T17:13:21.677Z,96265.31
2022-09-27T17:17:27.047Z,96260.31
2022-09-27T17:21:37.146Z,96254.50
2022-09-27T17:25:41.010Z,96249.50
2022-09-27T17:29:44.327Z,96252.72
2022-09-27T17:33:55.530Z,96261.38
2022-09-27T17:38:01.382Z,96264.78
2022-09-27T17:42:04.489Z,96261.00
2022-09-27T17:46:10.685Z,96269.22
2022-09-27T17:50:27.772Z,96275.84
2022-09-27T17:54:30.711Z,96271.03
2022-09-27T17:58:34.528Z,96268.41
2022-09-27T18:02:37.597Z,96271.03
2022-09-27T18:06:44.222Z,96269.81
2022-09-27T18:10:47.254Z,96273.25
2022-09-27T18:14:51.551Z,96268.03
2022-09-27T18:18:55.461Z,96260.19
2022-09-27T18:23:02.263Z,96276.22
2022-09-27T18:27:05.963Z,96273.25
2022-09-27T18:31:19.659Z,96278.66
2022-09-27T18:35:25.416Z,96285.69
2022-09-27T18:39:30.566Z,96293.50
2022-09-27T18:43:38.038Z,96294.13
2022-09-27T18:47:42.244Z,96281.66
2022-09-27T18:51:47.706Z,96296.28
2022-09-27T18:55:52.689Z,96299.69
2022-09-27T18:59:55.854Z,96296.69
2022-09-27T19:03:59.749Z,96299.31
2022-09-27T19:08:03.737Z,96306.34
2022-09-27T19:12:08.477Z,96311.97
2022-09-27T19:16:13.005Z,96324.84
2022-09-27T19:20:16.147Z,96338.47
2022-09-27T19:24:22.324Z,96344.28
2022-09-27T19:28:27.570Z,96351.53
2022-09-27T19:32:31.185Z,96348.94
2022-09-27T19:36:34.662Z,96357.75
2022-09-27T19:40:38.548Z,96361.75
2022-09-27T19:44:43.329Z,96380.25
2022-09-27T19:48:48.276Z,96388.50
2022-09-27T19:52:51.758Z,96400.13
2022-09-27T19:56:54.986Z,96401.94
2022-09-27T20:01:06.200Z,96396.72
2022-09-27T20:05:09.843Z,96398.13
2022-09-27T20:09:13.477Z,96387.06
2022-09-27T20:13:17.009Z,96368.97
2022-09-27T20:17:21.417Z,96364.56
2022-09-27T20:21:28.593Z,96356.13
2022-09-27T20:25:32.089Z,96356.25
2022-09-27T20:29:35.177Z,96356.03
2022-09-27T20:33:44.394Z,96343.56
2022-09-27T20:37:48.165Z,96355.38
2022-09-27T20:41:51.457Z,96366.31
2022-09-27T20:45:55.063Z,96364.66
2022-09-27T20:49:59.872Z,96362.44
2022-09-27T20:54:03.718Z,96376.41
2022-09-27T20:58:06.896Z,96365.91
2022-09-27T21:02:09.848Z,96358.25
2022-09-27T21:06:16.778Z,96358.06
2022-09-27T21:10:20.318Z,96358.03
2022-09-27T21:14:23.373Z,96361.63
2022-09-27T21:18:27.138Z,96364.00
2022-09-27T21:22:32.126Z,96370.81
2022-09-27T21:26:36.052Z,96372.47
2022-09-27T21:30:39.596Z,96372.50
2022-09-27T21:34:43.262Z,96375.34
2022-09-27T21:38:47.693Z,96370.16
2022-09-27T21:42:55.601Z,96375.38
2022-09-27T21:47:00.493Z,96371.81
2022-09-27T21:51:05.643Z,96369.88
2022-09-27T21:55:11.369Z,96366.31
2022-09-27T21:59:18.227Z,96356.31
2022-09-27T22:03:22.099Z,96357.94
2022-09-27T22:07:26.126Z,96363.00
2022-09-27T22:11:32.307Z,96357.78
2022-09-27T22:15:37.869Z,96356.78
2022-09-27T22:19:41.323Z,96345.78
2022-09-27T22:23:45.548Z,96329.38
2022-09-27T22:27:50.839Z,96337.81
2022-09-27T22:31:54.435Z,96338.44
2022-09-27T22:35:57.579Z,96330.03
2022-09-27T22:40:00.648Z,96324.00
2022-09-27T22:44:05.238Z,96321.19
2022-09-27T22:48:08.650Z,96319.59
2022-09-27T22:52:12.162Z,96320.59
2022-09-27T22:56:17.069Z,96318.00
2022-09-27T23:00:22.062Z,96327.41
2022-09-27T23:04:25.546Z,96325.81
2022-09-27T23:08:28.559Z,96323.22
2022-09-27T23:12:32.769Z,96324.81
2022-09-27T23:16:39.522Z,96313.56
2022-09-27T23:20:42.632Z,96312.78
2022-09-27T23:24:46.288Z,96305.16
2022-09-27T23:28:53.828Z,96291.50
2022-09-27T23:32:58.753Z,96301.13
2022-09-27T23:37:02.245Z,96310.34
2022-09-27T23:41:08.743Z,96303.06
2022-09-27T23:45:12.313Z,96308.72
2022-09-27T23:49:17.056Z,96313.13
2022-09-27T23:53:20.913Z,96303.09
2022-09-27T23:57:24.369Z,96310.91
